createdAt,value
2023-03-01T09:14:16.476Z,50.834854
2023-03-01T09:15:16.472Z,50.834824
2023-03-01T09:16:16.456Z,50.834839
2023-03-01T09:17:16.430Z,50.834850
2023-03-01T09:18:16.441Z,50.834846
2023-03-01T09:19:16.431Z,50.834839
2023-03-01T09:20:16.406Z,50.834835
2023-03-01T09:21:16.419Z,50.834846
2023-03-01T09:22:16.393Z,50.834846
2023-03-01T09:23:16.388Z,50.834808
2023-03-01T09:24:16.416Z,50.834820
2023-03-01T09:25:16.389Z,50.834816
2023-03-01T09:26:16.387Z,50.834770
2023-03-01T09:27:16.370Z,50.834785
2023-03-01T09:28:29.171Z,50.834801
2023-03-01T09:29:18.338Z,50.834812
2023-03-01T09:30:16.332Z,50.834808
2023-03-01T09:31:16.408Z,50.834797
2023-03-01T09:32:16.529Z,50.834808
2023-03-01T09:33:16.313Z,50.834801
2023-03-01T09:34:16.306Z,50.834805
2023-03-01T09:35:16.328Z,50.834782
2023-03-01T09:36:16.283Z,50.834774
2023-03-01T09:37:16.275Z,50.834774
2023-03-01T09:38:16.378Z,50.834797
2023-03-01T09:39:16.295Z,50.834824
2023-03-01T09:40:16.277Z,50.834843
2023-03-01T09:41:16.261Z,50.834831
2023-03-01T09:42:16.240Z,50.834827
2023-03-01T09:43:16.227Z,50.834816
2023-03-01T09:44:48.114Z,50.834835
2023-03-01T09:45:16.198Z,50.834850
2023-03-01T09:46:16.328Z,50.834850
2023-03-01T09:47:16.186Z,50.834816
2023-03-01T09:48:16.211Z,50.834808
2023-03-01T09:49:16.180Z,50.834827
2023-03-01T09:50:16.183Z,50.834843
2023-03-01T09:51:16.163Z,50.834850
2023-03-01T09:52:16.162Z,50.834808
2023-03-01T09:53:16.168Z,50.834797
2023-03-01T09:54:16.157Z,50.834820
2023-03-01T09:55:16.151Z,50.834831
2023-03-01T09:56:16.129Z,50.834843
2023-03-01T09:57:16.131Z,50.834831
2023-03-01T09:58:16.122Z,50.834820
2023-03-01T09:59:16.097Z,50.834827
2023-03-01T10:00:16.090Z,50.834816
2023-03-01T10:01:16.073Z,50.834850
2023-03-01T10:02:16.108Z,50.834843
2023-03-01T10:03:16.113Z,50.834820
2023-03-01T10:04:16.217Z,50.834808
2023-03-01T10:05:16.070Z,50.834812
2023-03-01T10:06:27.579Z,50.834820
2023-03-01T10:07:18.057Z,50.834831
2023-03-01T10:08:16.070Z,50.834805
2023-03-01T10:09:16.046Z,50.834820
2023-03-01T10:10:16.030Z,50.834831
2023-03-01T10:11:16.039Z,50.834808
2023-03-01T10:12:16.005Z,50.834816
2023-03-01T10:13:16.012Z,50.834820
2023-03-01T10:14:15.983Z,50.834820
2023-03-01T10:15:15.972Z,50.834824
2023-03-01T10:16:16.055Z,50.834816
2023-03-01T10:17:17.471Z,50.834835
2023-03-01T10:18:15.974Z,50.834835
2023-03-01T10:19:16.595Z,50.834824
2023-03-01T10:20:15.965Z,50.834843
2023-03-01T10:21:15.936Z,50.834816
2023-03-01T10:22:15.944Z,50.834805
2023-03-01T10:23:15.929Z,50.834812
2023-03-01T10:24:15.957Z,50.834782
2023-03-01T10:25:15.908Z,50.834820
2023-03-01T10:26:15.897Z,50.834816
2023-03-01T10:27:15.874Z,50.834801
2023-03-01T10:28:15.873Z,50.834801
2023-03-01T10:29:15.894Z,50.834812
2023-03-01T10:30:15.855Z,50.834808
2023-03-01T10:31:15.945Z,50.834797
2023-03-01T10:32:15.880Z,50.834782
2023-03-01T10:33:15.836Z,50.834785
2023-03-01T10:34:15.838Z,50.834801
2023-03-01T10:35:15.848Z,50.834805
2023-03-01T10:36:15.800Z,50.834805
2023-03-01T10:37:15.852Z,50.834816
2023-03-01T10:38:15.799Z,50.834808
2023-03-01T10:39:15.800Z,50.834812
2023-03-01T10:40:15.793Z,50.834789
2023-03-01T10:41:15.752Z,50.834805
2023-03-01T10:42:15.781Z,50.834801
2023-03-01T10:43:15.768Z,50.834789
2023-03-01T10:44:15.739Z,50.834816
2023-03-01T10:45:15.765Z,50.834824
2023-03-01T10:46:15.803Z,50.834816
2023-03-01T10:47:15.704Z,50.834843
2023-03-01T10:48:15.776Z,50.834831
2023-03-01T10:49:15.741Z,50.834820
2023-03-01T10:50:15.711Z,50.834812
2023-03-01T10:51:15.690Z,50.834812
2023-03-01T10:52:15.740Z,50.834816
2023-03-01T10:53:15.658Z,50.834816
2023-03-01T10:54:15.650Z,50.834820
2023-03-01T10:55:15.648Z,50.834824
2023-03-01T10:56:15.697Z,50.834816
2023-03-01T10:57:15.650Z,50.834824
2023-03-01T10:58:15.751Z,50.834839
2023-03-01T10:59:15.659Z,50.834843
2023-03-01T11:00:15.647Z,50.834835
2023-03-01T11:01:15.667Z,50.834827
2023-03-01T11:02:24.542Z,50.834812
2023-03-01T11:03:17.639Z,50.834816
2023-03-01T11:04:15.662Z,50.834801
2023-03-01T11:05:15.581Z,50.834812
2023-03-01T11:06:15.581Z,50.834797
2023-03-01T11:07:15.598Z,50.834797
2023-03-01T11:08:15.570Z,50.834793
2023-03-01T11:09:15.558Z,50.834816
2023-03-01T11:10:15.558Z,50.834824
2023-03-01T11:11:15.553Z,50.834808
2023-03-01T11:12:15.534Z,50.834808
2023-03-01T11:13:15.514Z,50.834820
2023-03-01T11:14:25.876Z,50.834789
2023-03-01T11:15:17.499Z,50.834797
2023-03-01T11:16:15.614Z,50.834808
2023-03-01T11:17:15.504Z,50.834816
2023-03-01T11:18:15.518Z,50.834820
2023-03-01T11:19:15.491Z,50.834793
2023-03-01T11:20:15.539Z,50.834789
2023-03-01T11:21:15.487Z,50.834808
2023-03-01T11:22:15.524Z,50.834801
2023-03-01T11:23:15.480Z,50.834793
2023-03-01T11:24:15.441Z,50.834801
2023-03-01T11:25:15.453Z,50.834801
2023-03-01T11:26:15.420Z,50.834801
2023-03-01T11:27:15.403Z,50.834793
2023-03-01T11:28:16.027Z,50.834801
2023-03-01T11:29:15.434Z,50.834797
2023-03-01T11:30:15.454Z,50.834816
2023-03-01T11:31:15.458Z,50.834824
2023-03-01T11:32:15.461Z,50.834782
2023-03-01T11:33:15.402Z,50.834812
2023-03-01T11:34:15.387Z,50.834820
2023-03-01T11:35:15.340Z,50.834820
2023-03-01T11:36:16.190Z,50.834854
2023-03-01T11:37:15.410Z,50.834831
2023-03-01T11:38:15.348Z,50.834812
2023-03-01T11:39:15.378Z,50.834805
2023-03-01T11:40:15.435Z,50.834820
2023-03-01T11:41:15.321Z,50.834816
2023-03-01T11:42:19.150Z,50.834812
2023-03-01T11:43:16.369Z,50.834808
2023-03-01T11:44:15.320Z,50.834805
2023-03-01T11:45:15.296Z,50.834827
2023-03-01T11:46:15.350Z,50.834820
2023-03-01T11:47:15.372Z,50.834812
2023-03-01T11:48:15.269Z,50.834816
2023-03-01T11:49:15.281Z,50.834846
2023-03-01T11:50:15.252Z,50.834850
2023-03-01T11:51:15.790Z,50.834820
2023-03-01T11:52:16.255Z,50.834808
2023-03-01T11:53:15.219Z,50.834793
2023-03-01T11:54:15.196Z,50.834816
2023-03-01T11:55:16.221Z,50.834877
2023-03-01T11:56:15.220Z,50.834820
2023-03-01T11:57:15.181Z,50.834797
2023-03-01T11:58:15.168Z,50.834808
2023-03-01T11:59:15.205Z,50.834801
2023-03-01T12:00:15.196Z,50.834763
2023-03-01T12:01:15.182Z,50.834789
2023-03-01T12:02:15.202Z,50.834797
2023-03-01T12:03:15.132Z,50.834808
2023-03-01T12:04:15.236Z,50.834797
2023-03-01T12:05:15.149Z,50.834782
2023-03-01T12:06:15.146Z,50.834770
2023-03-01T12:07:15.190Z,50.834778
2023-03-01T12:08:15.113Z,50.834759
2023-03-01T12:09:15.126Z,50.834770
2023-03-01T12:10:15.130Z,50.834793
2023-03-01T12:11:15.151Z,50.834808
2023-03-01T12:12:15.082Z,50.834778
2023-03-01T12:13:15.093Z,50.834797
2023-03-01T12:14:15.046Z,50.834770
2023-03-01T12:15:15.054Z,50.834801
2023-03-01T12:16:16.270Z,50.834793
2023-03-01T12:17:15.107Z,50.834785
2023-03-01T12:18:15.029Z,50.834782
2023-03-01T12:19:15.044Z,50.834770
2023-03-01T12:20:15.129Z,50.834778
2023-03-01T12:21:14.995Z,50.834785
2023-03-01T12:22:14.984Z,50.834782
2023-03-01T12:23:20.756Z,50.834785
2023-03-01T12:24:16.973Z,50.834770
2023-03-01T12:25:14.991Z,50.834770
2023-03-01T12:26:14.992Z,50.834774
2023-03-01T12:27:14.970Z,50.834763
2023-03-01T12:28:14.967Z,50.834770
2023-03-01T12:29:14.942Z,50.834763
2023-03-01T12:30:14.930Z,50.834774
2023-03-01T12:31:14.987Z,50.834778
2023-03-01T12:32:15.202Z,50.834770
2023-03-01T12:33:14.917Z,50.834763
2023-03-01T12:34:14.952Z,50.834751
2023-03-01T12:35:14.886Z,50.834763
2023-03-01T12:36:14.936Z,50.834778
2023-03-01T12:37:14.880Z,50.834778
2023-03-01T12:38:14.857Z,50.834770
2023-03-01T12:39:14.907Z,50.834801
2023-03-01T12:40:14.847Z,50.834782
2023-03-01T12:41:14.882Z,50.834774
2023-03-01T12:42:14.822Z,50.834774
2023-03-01T12:43:14.873Z,50.834774
2023-03-01T12:44:14.841Z,50.834770
2023-03-01T12:45:14.827Z,50.834785
2023-03-01T12:46:14.864Z,50.834782
2023-03-01T12:47:14.824Z,50.834793
2023-03-01T12:48:14.800Z,50.834801
2023-03-01T12:49:14.801Z,50.834789
2023-03-01T12:50:14.872Z,50.834805
2023-03-01T12:51:14.812Z,50.834789
2023-03-01T12:52:14.758Z,50.834793
2023-03-01T12:53:14.741Z,50.834785
2023-03-01T12:54:14.759Z,50.834793
2023-03-01T12:55:14.890Z,50.834763
2023-03-01T12:56:14.720Z,50.834801
2023-03-01T12:57:14.722Z,50.834805
2023-03-01T12:58:14.728Z,50.834816
2023-03-01T12:59:15.631Z,50.834812
2023-03-01T13:00:14.734Z,50.834801
2023-03-01T13:01:14.742Z,50.834808
2023-03-01T13:02:14.666Z,50.834801
2023-03-01T13:03:14.684Z,50.834812
2023-03-01T13:04:14.705Z,50.834820
2023-03-01T13:05:14.680Z,50.834808
2023-03-01T13:06:14.690Z,50.834805
2023-03-01T13:07:14.698Z,50.834824
2023-03-01T13:08:14.695Z,50.834843
2023-03-01T13:09:14.635Z,50.834808
2023-03-01T13:10:14.648Z,50.834824
2023-03-01T13:11:14.624Z,50.834816
2023-03-01T13:12:20.220Z,50.834846
2023-03-01T13:13:16.618Z,50.834805
2023-03-01T13:14:14.580Z,50.834831
2023-03-01T13:15:14.561Z,50.834808
2023-03-01T13:16:15.907Z,50.834812
2023-03-01T13:17:15.575Z,50.834839
2023-03-01T13:18:15.198Z,50.834839
2023-03-01T13:19:14.543Z,50.834843
2023-03-01T13:20:14.596Z,50.834824
2023-03-01T13:21:14.568Z,50.834816
2023-03-01T13:22:14.540Z,50.834862
2023-03-01T13:23:14.517Z,50.834839
2023-03-01T13:24:14.514Z,50.834866
2023-03-01T13:25:14.538Z,50.834846
2023-03-01T13:26:14.493Z,50.834850
2023-03-01T13:27:14.499Z,50.834843
2023-03-01T13:28:15.116Z,50.834805
2023-03-01T13:29:14.509Z,50.834808
2023-03-01T13:30:14.454Z,50.834801
2023-03-01T13:31:14.447Z,50.834816
2023-03-01T13:32:14.534Z,50.834801
2023-03-01T13:33:14.473Z,50.834812
2023-03-01T13:34:14.456Z,50.834843
2023-03-01T13:35:14.403Z,50.834846
2023-03-01T13:36:14.497Z,50.834839
2023-03-01T13:37:14.389Z,50.834850
2023-03-01T13:38:14.415Z,50.834831
2023-03-01T13:39:15.923Z,50.834824
2023-03-01T13:40:14.385Z,50.834831
2023-03-01T13:41:14.381Z,50.834824
2023-03-01T13:42:14.354Z,50.834816
2023-03-01T13:43:14.393Z,50.834820
2023-03-01T13:44:14.586Z,50.834831
2023-03-01T13:45:14.340Z,50.834820
2023-03-01T13:46:14.402Z,50.834824
2023-03-01T13:47:14.396Z,50.834820
2023-03-01T13:48:14.336Z,50.834785
2023-03-01T13:49:14.309Z,50.834816
2023-03-01T13:50:14.321Z,50.834824
2023-03-01T13:51:14.304Z,50.834808
2023-03-01T13:52:14.672Z,50.834816
2023-03-01T13:53:14.296Z,50.834835
2023-03-01T13:54:14.260Z,50.834820
2023-03-01T13:55:14.262Z,50.834808
2023-03-01T13:56:14.258Z,50.834793
2023-03-01T13:57:14.265Z,50.834805
2023-03-01T13:58:14.232Z,50.834812
2023-03-01T13:59:14.236Z,50.834824
2023-03-01T14:00:14.254Z,50.834805
2023-03-01T14:01:14.342Z,50.834801
2023-03-01T14:02:14.227Z,50.834797
2023-03-01T14:03:14.206Z,50.834808
2023-03-01T14:04:14.300Z,50.834827
2023-03-01T14:05:14.207Z,50.834808
2023-03-01T14:06:17.256Z,50.834805
2023-03-01T14:07:15.181Z,50.834789
2023-03-01T14:08:14.203Z,50.834816
2023-03-01T14:09:15.049Z,50.834839
2023-03-01T14:10:14.179Z,50.834797
2023-03-01T14:11:14.141Z,50.834812
2023-03-01T14:12:14.135Z,50.834812
2023-03-01T14:13:16.431Z,50.834839
2023-03-01T14:14:15.170Z,50.834831
2023-03-01T14:15:14.661Z,50.834839
2023-03-01T14:16:14.145Z,50.834820
2023-03-01T14:17:14.086Z,50.834808
2023-03-01T14:18:14.101Z,50.834835
2023-03-01T14:19:16.088Z,50.834831
2023-03-01T14:20:15.088Z,50.834801
2023-03-01T14:21:14.067Z,50.834805
2023-03-01T14:22:14.088Z,50.834808
2023-03-01T14:23:14.053Z,50.834816
2023-03-01T14:24:14.045Z,50.834824
2023-03-01T14:25:14.039Z,50.834812
2023-03-01T14:26:14.059Z,50.834793
2023-03-01T14:27:14.011Z,50.834793
2023-03-01T14:28:14.002Z,50.834808
2023-03-01T14:29:14.000Z,50.834797
2023-03-01T14:30:14.040Z,50.834793
2023-03-01T14:31:13.998Z,50.834801
2023-03-01T14:32:14.008Z,50.834820
2023-03-01T14:33:13.959Z,50.834805
2023-03-01T14:34:13.973Z,50.834812
2023-03-01T14:35:13.964Z,50.834805
2023-03-01T14:36:14.034Z,50.834805
2023-03-01T14:37:13.937Z,50.834805
2023-03-01T14:38:13.959Z,50.834782
2023-03-01T14:39:13.935Z,50.834793
2023-03-01T14:40:13.929Z,50.834824
2023-03-01T14:41:13.945Z,50.834824
2023-03-01T14:42:15.733Z,50.834816
2023-03-01T14:43:14.901Z,50.834812
2023-03-01T14:44:13.878Z,50.834805
2023-03-01T14:45:13.885Z,50.834808
2023-03-01T14:46:13.896Z,50.834805
2023-03-01T14:47:13.868Z,50.834820
2023-03-01T14:48:13.873Z,50.834820
2023-03-01T14:49:13.868Z,50.834820
2023-03-01T14:50:13.884Z,50.834805
2023-03-01T14:51:13.857Z,50.834812
2023-03-01T14:52:13.874Z,50.834805
2023-03-01T14:53:13.822Z,50.834789
2023-03-01T14:54:13.811Z,50.834805
2023-03-01T14:55:13.875Z,50.834805
2023-03-01T14:56:13.794Z,50.834789
2023-03-01T14:57:13.800Z,50.834805
2023-03-01T14:58:13.838Z,50.834808
2023-03-01T14:59:13.770Z,50.834801
2023-03-01T15:00:13.762Z,50.834827
2023-03-01T15:01:13.803Z,50.834774
2023-03-01T15:02:13.751Z,50.834782
2023-03-01T15:03:13.746Z,50.834827
2023-03-01T15:04:13.812Z,50.834782
2023-03-01T15:05:13.729Z,50.834782
2023-03-01T15:06:13.739Z,50.834763
2023-03-01T15:07:13.694Z,50.834770
2023-03-01T15:08:13.737Z,50.834774
2023-03-01T15:09:13.681Z,50.834801
2023-03-01T15:10:13.685Z,50.834797
2023-03-01T15:11:13.697Z,50.834782
2023-03-01T15:12:14.648Z,50.834805
2023-03-01T15:13:13.719Z,50.834808
2023-03-01T15:14:13.648Z,50.834820
2023-03-01T15:15:13.636Z,50.834785
2023-03-01T15:16:13.742Z,50.834774
2023-03-01T15:17:13.639Z,50.834778
2023-03-01T15:18:13.670Z,50.834774
2023-03-01T15:19:13.614Z,50.834805
2023-03-01T15:20:13.633Z,50.834797
2023-03-01T15:21:13.600Z,50.834755
2023-03-01T15:22:15.568Z,50.834778
2023-03-01T15:23:13.604Z,50.834770
2023-03-01T15:24:13.597Z,50.834789
2023-03-01T15:25:13.550Z,50.834785
2023-03-01T15:26:13.576Z,50.834789
2023-03-01T15:27:13.573Z,50.834801
2023-03-01T15:28:13.648Z,50.834812
2023-03-01T15:29:13.543Z,50.834801
2023-03-01T15:30:13.545Z,50.834812
2023-03-01T15:31:13.544Z,50.834812
2023-03-01T15:32:13.596Z,50.834827
2023-03-01T15:33:13.523Z,50.834801
2023-03-01T15:34:13.480Z,50.834805
2023-03-01T15:35:13.481Z,50.834816
2023-03-01T15:36:13.477Z,50.834816
2023-03-01T15:37:13.501Z,50.834808
2023-03-01T15:38:24.645Z,50.834782
2023-03-01T15:39:15.470Z,50.834793
2023-03-01T15:40:13.434Z,50.834789
2023-03-01T15:41:13.447Z,50.834789
2023-03-01T15:42:13.457Z,50.834778
2023-03-01T15:43:13.422Z,50.834782
2023-03-01T15:55:46.375Z,50.834827
2023-03-01T15:56:46.331Z,50.834782
2023-03-01T15:57:46.352Z,50.834778
2023-03-01T15:58:46.317Z,50.834782
2023-03-01T15:59:46.300Z,50.834782
2023-03-01T16:00:59.905Z,50.834793
2023-03-01T16:01:48.314Z,50.834789
2023-03-01T16:02:46.334Z,50.834797
2023-03-01T16:03:46.344Z,50.834801
2023-03-01T16:04:46.260Z,50.834805
2023-03-01T16:05:46.283Z,50.834808
2023-03-01T16:06:46.302Z,50.834808
2023-03-01T16:07:46.287Z,50.834812
2023-03-01T16:08:46.247Z,50.834812
2023-03-01T16:09:46.235Z,50.834816
2023-03-01T16:10:46.279Z,50.834816
2023-03-01T16:11:46.225Z,50.834805
2023-03-01T16:12:46.304Z,50.834797
2023-03-01T16:13:46.278Z,50.834808
2023-03-01T16:14:46.260Z,50.834805
2023-03-01T16:15:46.238Z,50.834793
2023-03-01T16:16:46.254Z,50.834782
2023-03-01T16:17:46.288Z,50.834793
2023-03-01T16:18:46.178Z,50.834789
2023-03-01T16:19:46.206Z,50.834778
2023-03-01T16:20:46.145Z,50.834797
2023-03-01T16:21:46.147Z,50.834789
2023-03-01T16:22:46.125Z,50.834808
2023-03-01T16:23:46.160Z,50.834785
2023-03-01T16:24:46.160Z,50.834797
2023-03-01T16:25:46.095Z,50.834782
2023-03-01T16:26:47.060Z,50.834778
2023-03-01T16:27:46.123Z,50.834774
2023-03-01T16:28:46.156Z,50.834778
2023-03-01T16:29:46.099Z,50.834774
2023-03-01T16:31:19.376Z,50.834778
2023-03-01T16:31:47.796Z,50.834793
2023-03-01T16:37:45.661Z,50.834843
2023-03-01T16:38:46.521Z,50.834755
2023-03-01T16:39:44.369Z,50.834793
2023-03-01T16:40:44.542Z,50.834785
2023-03-01T16:41:46.360Z,50.834801
2023-03-01T16:42:48.134Z,50.834793
2023-03-01T16:43:45.169Z,50.834789
2023-03-01T16:44:44.178Z,50.834789
2023-03-01T16:45:44.371Z,50.834793
2023-03-01T16:46:44.096Z,50.834808
2023-03-01T16:47:44.109Z,50.834816
2023-03-01T16:48:44.392Z,50.834805
2023-03-01T16:49:44.165Z,50.834805
2023-03-01T16:50:45.440Z,50.834778
2023-03-01T16:51:44.260Z,50.834812
2023-03-01T16:52:44.115Z,50.834816
2023-03-01T16:53:47.050Z,50.834801
2023-03-01T16:54:45.091Z,50.834789
2023-03-01T16:55:44.210Z,50.834801
2023-03-01T16:56:44.114Z,50.834770
2023-03-01T16:57:44.153Z,50.834785
2023-03-01T16:58:43.999Z,50.834763
2023-03-01T16:59:44.044Z,50.834774
2023-03-01T17:00:44.065Z,50.834801
2023-03-01T17:01:44.109Z,50.834789
2023-03-01T17:02:43.932Z,50.834793
2023-03-01T17:03:43.885Z,50.834782
2023-03-01T17:04:43.959Z,50.834801
2023-03-01T17:05:44.046Z,50.834805
2023-03-01T17:06:43.920Z,50.834797
2023-03-01T17:07:43.914Z,50.834805
2023-03-01T17:08:43.936Z,50.834793
2023-03-01T17:09:43.905Z,50.834801
2023-03-01T17:10:43.985Z,50.834805
2023-03-01T17:11:44.023Z,50.834801
2023-03-01T17:12:44.053Z,50.834785
2023-03-01T17:13:44.032Z,50.834801
2023-03-01T17:14:43.834Z,50.834797
2023-03-01T17:15:44.422Z,50.834785
2023-03-01T17:16:43.899Z,50.834778
2023-03-01T17:17:43.833Z,50.834782
2023-03-01T17:18:43.837Z,50.834782
2023-03-01T17:19:44.447Z,50.834797
2023-03-01T17:20:44.143Z,50.834782
2023-03-01T17:21:48.954Z,50.834782
2023-03-01T17:22:43.841Z,50.834782
2023-03-01T18:13:24.286Z,50.834824
2023-03-01T18:14:24.690Z,50.834812
2023-03-01T18:15:24.892Z,50.834805
2023-03-01T18:16:24.871Z,50.834793
2023-03-01T18:17:25.251Z,50.834793
2023-03-01T18:18:24.244Z,50.834801
2023-03-01T18:19:26.079Z,50.834816
2023-03-01T18:20:24.904Z,50.834831
2023-03-01T18:21:24.827Z,50.834824
2023-03-01T18:22:24.191Z,50.834805
2023-03-01T18:27:45.009Z,50.834827
2023-03-01T18:28:45.253Z,50.834824
2023-03-01T18:33:49.967Z,50.834824
2023-03-01T18:34:49.880Z,50.834827
2023-03-01T18:35:49.904Z,50.834827
2023-03-01T18:37:08.157Z,50.834835
2023-03-01T18:37:52.058Z,50.834824
2023-03-01T18:38:51.122Z,50.834808
2023-03-01T18:39:52.671Z,50.834831
2023-03-01T18:40:51.620Z,50.834831
2023-03-01T18:41:50.748Z,50.834839
2023-03-01T18:42:50.164Z,50.834808
2023-03-01T18:43:50.536Z,50.834820
2023-03-01T18:44:50.014Z,50.834846
2023-03-01T18:45:51.551Z,50.834854
2023-03-01T18:46:51.670Z,50.834827
2023-03-01T18:47:52.153Z,50.834824
2023-03-01T18:48:52.186Z,50.834808
2023-03-01T18:49:51.429Z,50.834827
2023-03-01T18:50:50.810Z,50.834827
2023-03-01T18:51:50.964Z,50.834824
2023-03-01T18:52:51.811Z,50.834808
2023-03-01T18:53:51.403Z,50.834789
2023-03-01T19:01:17.967Z,50.835106
2023-03-01T19:02:16.492Z,50.834988
2023-03-01T19:03:16.346Z,50.834854
2023-03-01T19:16:58.943Z,50.834843
2023-03-01T19:17:59.004Z,50.834850
2023-03-01T19:18:58.965Z,50.834831
2023-03-01T19:19:58.930Z,50.834824
2023-03-01T19:21:03.456Z,50.834827
2023-03-01T19:22:05.716Z,50.834835
2023-03-01T19:23:01.937Z,50.834846
2023-03-01T19:23:59.912Z,50.834831
2023-03-01T19:24:58.932Z,50.834820
2023-03-01T19:25:58.881Z,50.834843
2023-03-01T19:26:58.979Z,50.834835
2023-03-01T19:27:58.866Z,50.834846
2023-03-01T19:28:58.903Z,50.834858
2023-03-01T19:29:58.878Z,50.834835
2023-03-01T19:30:58.911Z,50.834862
2023-03-01T19:31:58.936Z,50.834881
2023-03-01T19:32:58.916Z,50.834854
2023-03-01T19:34:10.410Z,50.834896
2023-03-01T19:35:00.852Z,50.834896
2023-03-01T19:35:58.970Z,50.834900
2023-03-01T19:36:59.102Z,50.834908
2023-03-01T19:37:58.937Z,50.834915
2023-03-01T19:38:58.949Z,50.834923
2023-03-01T19:39:58.818Z,50.834904
2023-03-01T19:40:58.856Z,50.834873
2023-03-01T19:41:58.831Z,50.834877
2023-03-01T19:42:58.748Z,50.834911
2023-03-01T19:43:58.764Z,50.834888
2023-03-01T19:44:58.736Z,50.834900
2023-03-01T19:45:58.746Z,50.834919
2023-03-01T19:46:58.748Z,50.834908
2023-03-01T19:47:59.780Z,50.834892
2023-03-01T19:48:58.779Z,50.834888
2023-03-01T19:49:58.749Z,50.834866
2023-03-01T19:50:58.784Z,50.834881
2023-03-01T19:51:58.698Z,50.834866
2023-03-01T19:52:58.681Z,50.834869
2023-03-01T19:53:59.038Z,50.834873
2023-03-01T19:55:08.829Z,50.834846
2023-03-01T19:56:00.328Z,50.834873
2023-03-01T19:56:58.636Z,50.834854
2023-03-01T19:57:58.703Z,50.834885
2023-03-01T19:58:58.642Z,50.834888
2023-03-01T19:59:58.609Z,50.834888
2023-03-01T20:00:58.757Z,50.834881
2023-03-01T20:01:58.648Z,50.834877
2023-03-01T20:02:58.630Z,50.834816
2023-03-01T20:03:58.649Z,50.834827
2023-03-01T20:05:00.337Z,50.834839
2023-03-01T20:05:58.656Z,50.834846
2023-03-01T20:06:58.587Z,50.834827
2023-03-01T20:07:58.588Z,50.834846
2023-03-01T20:09:02.383Z,50.834854
2023-03-01T20:09:58.583Z,50.834850
2023-03-01T20:10:58.567Z,50.834854
2023-03-01T20:11:58.542Z,50.834839
2023-03-01T20:13:31.951Z,50.834846
2023-03-01T20:14:00.274Z,50.834877
2023-03-01T20:15:00.476Z,50.834877
2023-03-01T20:15:58.626Z,50.834866
2023-03-01T20:16:58.484Z,50.834862
2023-03-01T20:17:58.567Z,50.834846
2023-03-01T20:18:59.413Z,50.834850
2023-03-01T20:19:58.538Z,50.834854
2023-03-01T20:20:58.457Z,50.834869
2023-03-01T20:21:58.486Z,50.834862
2023-03-01T20:22:59.428Z,50.834850
2023-03-01T20:23:58.560Z,50.834854
2023-03-01T20:24:58.506Z,50.834858
2023-03-01T20:25:58.507Z,50.834854
2023-03-01T20:26:59.499Z,50.834846
2023-03-01T20:27:59.522Z,50.834854
2023-03-01T20:28:58.425Z,50.834835
2023-03-01T20:29:58.491Z,50.834869
2023-03-01T20:30:58.407Z,50.834885
2023-03-01T20:31:58.577Z,50.834877
2023-03-01T20:32:58.389Z,50.834877
2023-03-01T20:33:58.388Z,50.834850
2023-03-01T20:34:58.402Z,50.834854
2023-03-01T20:35:58.433Z,50.834854
2023-03-01T20:37:33.858Z,50.834850
2023-03-01T20:38:32.437Z,50.834862
2023-03-01T20:39:30.863Z,50.834854
2023-03-01T20:40:33.464Z,50.834858
2023-03-01T20:40:58.343Z,50.834866
2023-03-01T20:42:31.985Z,50.834858
2023-03-01T20:42:58.276Z,50.834858
2023-03-01T20:43:58.312Z,50.834854
2023-03-01T20:44:58.300Z,50.834854
2023-03-01T20:45:58.256Z,50.834839
2023-03-01T20:46:59.339Z,50.834831
2023-03-01T20:47:59.241Z,50.834850
2023-03-01T20:48:58.293Z,50.834846
2023-03-01T20:49:58.233Z,50.834846
2023-03-01T20:50:58.247Z,50.834846
2023-03-01T20:51:58.272Z,50.834835
2023-03-01T20:52:58.233Z,50.834824
2023-03-01T20:53:58.253Z,50.834816
2023-03-01T20:54:58.256Z,50.834816
2023-03-01T20:55:59.006Z,50.834816
2023-03-01T20:56:58.190Z,50.834824
2023-03-01T20:57:58.210Z,50.834831
2023-03-01T20:58:59.221Z,50.834843
2023-03-01T20:59:58.177Z,50.834843
2023-03-01T21:00:58.200Z,50.834858
2023-03-01T21:01:58.121Z,50.834831
2023-03-01T21:02:58.163Z,50.834850
2023-03-01T21:03:58.218Z,50.834824
2023-03-01T21:04:58.170Z,50.834824
2023-03-01T21:05:58.173Z,50.834824
2023-03-01T21:06:58.121Z,50.834839
2023-03-01T21:07:58.139Z,50.834835
2023-03-01T21:08:58.118Z,50.834839
2023-03-01T21:09:58.139Z,50.834820
2023-03-01T21:10:58.156Z,50.834831
2023-03-01T21:11:58.138Z,50.834835
2023-03-01T21:12:58.084Z,50.834854
2023-03-01T21:13:58.104Z,50.834831
2023-03-01T21:14:58.070Z,50.834839
2023-03-01T21:15:58.096Z,50.834827
2023-03-01T21:16:58.045Z,50.834835
2023-03-01T21:17:58.114Z,50.834843
2023-03-01T21:18:58.017Z,50.834835
2023-03-01T21:19:58.056Z,50.834827
2023-03-01T21:20:58.058Z,50.834820
2023-03-01T21:21:58.024Z,50.834797
2023-03-01T21:22:58.053Z,50.834793
2023-03-01T21:23:57.972Z,50.834778
2023-03-01T21:24:58.010Z,50.834774
2023-03-01T21:25:58.010Z,50.834778
2023-03-01T21:26:58.003Z,50.834789
2023-03-01T21:27:57.968Z,50.834778
2023-03-01T21:28:57.999Z,50.834770
2023-03-01T21:29:57.989Z,50.834782
2023-03-01T21:30:57.964Z,50.834808
2023-03-01T21:31:58.068Z,50.834812
2023-03-01T21:32:57.902Z,50.834778
2023-03-01T21:33:57.927Z,50.834785
2023-03-01T21:35:02.111Z,50.834770
2023-03-01T21:35:57.948Z,50.834759
2023-03-01T21:36:57.949Z,50.834759
2023-03-01T21:37:57.978Z,50.834755
2023-03-01T21:38:57.887Z,50.834785
2023-03-01T21:39:57.924Z,50.834782
2023-03-01T21:40:57.897Z,50.834774
2023-03-01T21:41:57.910Z,50.834782
2023-03-01T21:42:57.865Z,50.834759
2023-03-01T21:43:57.854Z,50.834785
2023-03-01T21:44:57.858Z,50.834808
2023-03-01T21:45:58.691Z,50.834824
2023-03-01T21:47:00.591Z,50.834812
2023-03-01T21:48:00.460Z,50.834797
2023-03-01T21:48:59.838Z,50.834797
2023-03-01T21:49:57.826Z,50.834824
2023-03-01T21:50:57.826Z,50.834835
2023-03-01T21:51:57.806Z,50.834805
2023-03-01T21:52:57.824Z,50.834835
2023-03-01T21:53:58.356Z,50.834816
2023-03-01T21:54:57.769Z,50.834816
2023-03-01T21:55:57.777Z,50.834801
2023-03-01T21:56:57.779Z,50.834797
2023-03-01T21:57:57.804Z,50.834782
2023-03-01T21:58:57.786Z,50.834782
2023-03-01T21:59:58.543Z,50.834793
2023-03-01T22:00:57.778Z,50.834801
2023-03-01T22:01:57.729Z,50.834797
2023-03-01T22:02:57.719Z,50.834816
2023-03-01T22:03:57.748Z,50.834812
2023-03-01T22:04:57.718Z,50.834797
2023-03-01T22:05:57.672Z,50.834793
2023-03-01T22:06:57.674Z,50.834793
2023-03-01T22:07:57.672Z,50.834801
2023-03-01T22:08:57.692Z,50.834797
2023-03-01T22:10:30.135Z,50.834808
2023-03-01T22:10:57.618Z,50.834816
2023-03-01T22:11:57.628Z,50.834797